createdAt,value
2023-02-17T00:00:37.373Z,1017.36
2023-02-17T00:04:36.052Z,1017.35
2023-02-17T00:08:36.329Z,1017.31
2023-02-17T00:12:35.216Z,1017.44
2023-02-17T00:16:35.242Z,1017.51
2023-02-17T00:20:35.811Z,1017.4
2023-02-17T00:24:35.862Z,1017.45
2023-02-17T00:28:35.833Z,1017.38
2023-02-17T00:32:36.510Z,1017.4
2023-02-17T00:36:35.072Z,1017.28
2023-02-17T00:40:35.463Z,1017.27
2023-02-17T00:44:37.581Z,1017.25
2023-02-17T00:48:35.680Z,1017.26
2023-02-17T00:52:35.521Z,1017.2
2023-02-17T00:56:35.739Z,1017.12
2023-02-17T01:00:39.256Z,1017.35
2023-02-17T01:04:35.403Z,1017.3
2023-02-17T01:08:35.584Z,1017.27
2023-02-17T01:12:35.460Z,1017.23
2023-02-17T01:16:35.845Z,1017.02
2023-02-17T01:20:35.714Z,1016.97
2023-02-17T01:24:35.625Z,1016.84
2023-02-17T01:28:35.541Z,1017.06
2023-02-17T01:32:35.945Z,1016.95
2023-02-17T01:36:35.910Z,1016.93
2023-02-17T01:40:35.924Z,1016.97
2023-02-17T01:44:35.952Z,1017.03
2023-02-17T01:48:35.942Z,1016.92
2023-02-17T01:52:36.016Z,1016.82
2023-02-17T01:56:35.750Z,1016.88
2023-02-17T02:00:39.384Z,1016.81
2023-02-17T02:04:35.506Z,1016.76
2023-02-17T02:08:35.223Z,1016.94
2023-02-17T02:12:35.129Z,1016.68
2023-02-17T02:16:35.592Z,1016.69
2023-02-17T02:20:35.429Z,1016.67
2023-02-17T02:24:35.095Z,1016.67
2023-02-17T02:28:36.074Z,1016.51
2023-02-17T02:32:35.991Z,1016.66
2023-02-17T02:36:36.049Z,1016.44
2023-02-17T02:40:35.187Z,1016.41
2023-02-17T02:44:35.391Z,1016.35
2023-02-17T02:48:35.510Z,1016.23
2023-02-17T02:52:35.503Z,1016.25
2023-02-17T02:56:35.549Z,1016.07
2023-02-17T03:00:39.144Z,1016.09
2023-02-17T03:04:35.590Z,1015.92
2023-02-17T03:08:35.339Z,1015.85
2023-02-17T03:12:35.409Z,1016.06
2023-02-17T03:16:35.824Z,1015.98
2023-02-17T03:20:35.597Z,1015.99
2023-02-17T03:24:35.661Z,1015.96
2023-02-17T03:28:35.715Z,1015.93
2023-02-17T03:32:36.073Z,1015.96
2023-02-17T03:36:35.602Z,1016.05
2023-02-17T03:40:35.692Z,1016.13
2023-02-17T03:44:35.819Z,1016.12
2023-02-17T03:48:35.632Z,1016.07
2023-02-17T03:52:35.796Z,1015.96
2023-02-17T03:56:35.777Z,1015.95
2023-02-17T04:00:43.474Z,1016.12
2023-02-17T04:04:35.800Z,1015.94
2023-02-17T04:08:35.867Z,1015.99
2023-02-17T04:12:35.789Z,1016.07
2023-02-17T04:16:36.073Z,1016.01
2023-02-17T04:20:35.159Z,1015.99
2023-02-17T04:24:35.455Z,1015.89
2023-02-17T04:28:35.457Z,1015.73
2023-02-17T04:32:35.829Z,1015.56
2023-02-17T04:36:35.797Z,1015.65
2023-02-17T04:40:35.953Z,1015.49
2023-02-17T04:44:36.027Z,1015.72
2023-02-17T04:48:35.137Z,1015.84
2023-02-17T04:52:35.192Z,1015.96
2023-02-17T04:56:35.199Z,1015.94
2023-02-17T05:00:39.584Z,1016.04
2023-02-17T05:04:35.755Z,1015.78
2023-02-17T05:08:35.945Z,1015.92
2023-02-17T05:12:35.104Z,1015.81
2023-02-17T05:16:35.694Z,1015.63
2023-02-17T05:20:35.549Z,1015.58
2023-02-17T05:24:37.035Z,1015.55
2023-02-17T05:28:35.866Z,1015.38
2023-02-17T05:32:36.164Z,1015.21
2023-02-17T05:36:36.124Z,1015.34
2023-02-17T05:40:35.322Z,1015.49
2023-02-17T05:44:35.350Z,1015.36
2023-02-17T05:48:35.562Z,1015.4
2023-02-17T05:52:35.485Z,1015.42
2023-02-17T05:56:35.616Z,1015.25
2023-02-17T06:00:39.274Z,1015.32
2023-02-17T06:04:35.876Z,1015.39
2023-02-17T06:08:35.617Z,1015.3
2023-02-17T06:12:35.679Z,1015.28
2023-02-17T06:16:36.098Z,1015.11
2023-02-17T06:20:35.949Z,1015.3
2023-02-17T06:24:35.730Z,1015.18
2023-02-17T06:28:35.704Z,1015.11
2023-02-17T06:32:35.924Z,1015
2023-02-17T06:36:35.699Z,1014.82
2023-02-17T06:40:35.957Z,1014.94
2023-02-17T06:44:35.901Z,1014.94
2023-02-17T06:48:35.329Z,1015.12
2023-02-17T06:52:35.473Z,1015
2023-02-17T06:56:35.413Z,1015.06
2023-02-17T07:00:35.451Z,1015.27
2023-02-17T07:04:35.913Z,1015.16
2023-02-17T07:08:35.887Z,1015.49
2023-02-17T07:12:35.952Z,1015.37
2023-02-17T07:16:36.465Z,1015.24
2023-02-17T07:20:37.785Z,1015.1
2023-02-17T07:24:36.050Z,1015.22
2023-02-17T07:28:35.938Z,1015.06
2023-02-17T07:32:35.839Z,1015.11
2023-02-17T07:36:35.895Z,1015.13
2023-02-17T07:40:35.739Z,1015.29
2023-02-17T07:44:35.850Z,1015.43
2023-02-17T07:48:35.847Z,1015.38
2023-02-17T07:52:38.973Z,1015.63
2023-02-17T07:56:35.859Z,1015.54
2023-02-17T08:00:39.122Z,1015.71
2023-02-17T08:04:36.225Z,1015.57
2023-02-17T08:08:35.726Z,1015.44
2023-02-17T08:12:35.813Z,1015.62
2023-02-17T08:16:35.801Z,1015.74
2023-02-17T08:20:45.495Z,1015.55
2023-02-17T08:24:36.005Z,1015.57
2023-02-17T08:28:35.920Z,1015.74
2023-02-17T08:32:36.324Z,1015.72
2023-02-17T08:36:35.915Z,1015.97
2023-02-17T08:40:35.947Z,1015.95
2023-02-17T08:44:35.917Z,1015.79
2023-02-17T08:48:36.768Z,1015.57
2023-02-17T08:52:35.812Z,1015.56
2023-02-17T08:56:35.985Z,1015.49
2023-02-17T09:00:40.382Z,1015.82
2023-02-17T09:04:35.649Z,1015.85
2023-02-17T09:08:35.177Z,1016.03
2023-02-17T09:12:35.400Z,1015.8
2023-02-17T09:16:35.648Z,1015.63
2023-02-17T09:20:47.480Z,1015.65
2023-02-17T09:24:35.592Z,1015.58
2023-02-17T09:28:35.721Z,1015.84
2023-02-17T09:32:36.317Z,1015.92
2023-02-17T09:36:35.449Z,1015.97
2023-02-17T09:40:35.641Z,1015.88
2023-02-17T09:44:35.423Z,1015.85
2023-02-17T09:48:35.563Z,1015.9
2023-02-17T09:52:35.595Z,1015.91
2023-02-17T09:56:35.614Z,1016.38
2023-02-17T10:00:41.359Z,1016.14
2023-02-17T10:04:36.581Z,1016.06
2023-02-17T10:08:35.776Z,1016.02
2023-02-17T10:12:35.722Z,1016.17
2023-02-17T10:16:35.909Z,1016.01
2023-02-17T10:20:35.489Z,1016.34
2023-02-17T10:24:35.766Z,1016.51
2023-02-17T10:28:35.859Z,1016.41
2023-02-17T10:32:36.867Z,1016.36
2023-02-17T10:36:36.286Z,1016.43
2023-02-17T10:40:35.211Z,1016.66
2023-02-17T10:44:35.410Z,1016.69
2023-02-17T10:48:35.318Z,1016.73
2023-02-17T10:52:35.326Z,1016.67
2023-02-17T10:56:35.380Z,1016.5
2023-02-17T11:00:41.135Z,1016.42
2023-02-17T11:04:36.750Z,1016.24
2023-02-17T11:08:35.265Z,1016.36
2023-02-17T11:12:35.352Z,1016.73
2023-02-17T11:16:37.170Z,1016.91
2023-02-17T11:20:35.924Z,1016.88
2023-02-17T11:24:35.850Z,1017.05
2023-02-17T11:28:35.875Z,1017.06
2023-02-17T11:32:36.140Z,1016.99
2023-02-17T11:36:35.975Z,1016.93
2023-02-17T11:40:37.998Z,1017.08
2023-02-17T11:44:36.162Z,1016.98
2023-02-17T11:48:35.244Z,1017.15
2023-02-17T11:52:35.511Z,1017.16
2023-02-17T11:56:36.035Z,1017.27
2023-02-17T12:00:39.550Z,1017.26
2023-02-17T12:04:35.869Z,1017.35
2023-02-17T12:08:35.503Z,1017.5
2023-02-17T12:12:35.466Z,1017.35
2023-02-17T12:16:35.436Z,1017.56
2023-02-17T12:20:36.240Z,1017.61
2023-02-17T12:24:36.000Z,1017.63
2023-02-17T12:28:35.938Z,1017.42
2023-02-17T12:32:36.327Z,1017.46
2023-02-17T12:36:36.025Z,1017.69
2023-02-17T12:40:35.823Z,1017.46
2023-02-17T12:44:35.817Z,1017.62
2023-02-17T12:48:35.936Z,1017.67
2023-02-17T12:52:35.894Z,1017.76
2023-02-17T12:56:36.167Z,1017.79
2023-02-17T13:00:38.622Z,1017.74
2023-02-17T13:04:35.623Z,1017.61
2023-02-17T13:08:35.746Z,1017.66
2023-02-17T13:12:35.905Z,1017.64
2023-02-17T13:16:36.076Z,1017.69
2023-02-17T13:20:36.006Z,1017.84
2023-02-17T13:24:36.057Z,1017.81
2023-02-17T13:28:35.891Z,1017.93
2023-02-17T13:32:36.713Z,1017.91
2023-02-17T13:36:35.803Z,1017.67
2023-02-17T13:40:36.086Z,1017.69
2023-02-17T13:44:35.019Z,1017.89
2023-02-17T13:48:35.206Z,1017.84
2023-02-17T13:52:35.390Z,1017.72
2023-02-17T13:56:35.569Z,1017.56
2023-02-17T14:00:39.516Z,1017.62
2023-02-17T14:04:35.783Z,1017.69
2023-02-17T14:08:36.072Z,1017.82
2023-02-17T14:12:35.940Z,1017.8
2023-02-17T14:16:35.976Z,1017.91
2023-02-17T14:20:35.232Z,1017.75
2023-02-17T14:24:35.196Z,1017.77
2023-02-17T14:28:35.174Z,1017.69
2023-02-17T14:32:35.340Z,1017.91
2023-02-17T14:36:35.337Z,1017.99
2023-02-17T14:40:35.132Z,1018.02
2023-02-17T14:44:35.246Z,1018.01
2023-02-17T14:48:37.403Z,1017.87
2023-02-17T14:52:35.418Z,1017.77
2023-02-17T14:56:35.268Z,1018.02
2023-02-17T15:00:39.257Z,1018.22
2023-02-17T15:04:35.503Z,1018.44
2023-02-17T15:08:35.684Z,1018.3
2023-02-17T15:12:39.340Z,1018.14
2023-02-17T15:16:35.804Z,1017.91
2023-02-17T15:20:35.776Z,1018.09
2023-02-17T15:24:40.746Z,1018.43
2023-02-17T15:28:35.976Z,1018.48
2023-02-17T15:32:36.634Z,1018.36
2023-02-17T15:36:36.308Z,1018.6
2023-02-17T15:40:35.478Z,1018.59
2023-02-17T15:44:35.376Z,1018.53
2023-02-17T15:48:35.531Z,1018.82
2023-02-17T15:52:35.493Z,1018.71
2023-02-17T15:56:35.471Z,1018.79
2023-02-17T16:00:38.968Z,1018.89
2023-02-17T16:04:36.002Z,1018.89
2023-02-17T16:08:35.154Z,1018.94
2023-02-17T16:12:35.423Z,1018.93
2023-02-17T16:16:35.602Z,1018.91
2023-02-17T16:20:35.344Z,1019
2023-02-17T16:24:35.533Z,1019.1
2023-02-17T16:28:35.530Z,1019.2
2023-02-17T16:32:36.283Z,1019.25
2023-02-17T16:36:35.698Z,1019.1
2023-02-17T16:40:35.947Z,1019.25
2023-02-17T16:44:35.868Z,1019.25
2023-02-17T16:48:36.051Z,1019.12
2023-02-17T16:52:35.787Z,1019.32
2023-02-17T16:56:35.895Z,1019.31
2023-02-17T17:00:39.836Z,1019.53
2023-02-17T17:04:35.843Z,1019.41
2023-02-17T17:08:36.276Z,1019.39
2023-02-17T17:12:35.027Z,1019.41
2023-02-17T17:16:35.417Z,1019.48
2023-02-17T17:20:35.511Z,1019.66
2023-02-17T17:24:35.568Z,1019.65
2023-02-17T17:28:35.553Z,1019.62
2023-02-17T17:32:35.861Z,1019.73
2023-02-17T17:36:35.368Z,1019.83
2023-02-17T17:40:35.626Z,1020.02
2023-02-17T17:44:35.769Z,1020.08
2023-02-17T17:48:35.643Z,1020.12
2023-02-17T17:52:35.670Z,1020.73
2023-02-17T17:56:36.138Z,1020.79
2023-02-17T18:00:40.387Z,1020.56
2023-02-17T18:04:35.569Z,1021.03
2023-02-17T18:08:35.352Z,1021.02
2023-02-17T18:12:35.445Z,1020.8
2023-02-17T18:16:35.632Z,1020.83
2023-02-17T18:20:35.433Z,1020.96
2023-02-17T18:24:36.073Z,1021.05
2023-02-17T18:28:35.866Z,1021.07
2023-02-17T18:32:35.852Z,1021.04
2023-02-17T18:36:35.826Z,1020.91
2023-02-17T18:40:35.783Z,1021
2023-02-17T18:44:35.601Z,1020.99
2023-02-17T18:48:35.848Z,1021.06
2023-02-17T18:52:35.985Z,1021.13
2023-02-17T18:56:35.974Z,1021.29
2023-02-17T19:00:39.661Z,1021.2
2023-02-17T19:04:36.066Z,1021.19
2023-02-17T19:08:35.067Z,1021.22
2023-02-17T19:12:35.834Z,1021.01
2023-02-17T19:16:35.702Z,1021.04
2023-02-17T19:20:35.614Z,1020.96
2023-02-17T19:24:35.850Z,1021.07
2023-02-17T19:28:35.725Z,1020.99
2023-02-17T19:32:35.787Z,1021.08
2023-02-17T19:36:35.581Z,1021.26
2023-02-17T19:40:35.765Z,1021.44
2023-02-17T19:44:35.721Z,1021.57
2023-02-17T19:48:35.998Z,1021.6
2023-02-17T19:52:35.754Z,1021.67
2023-02-17T19:56:36.471Z,1021.6
2023-02-17T20:00:38.528Z,1021.52
2023-02-17T20:04:35.461Z,1021.38
2023-02-17T20:08:35.731Z,1021.44
2023-02-17T20:12:35.749Z,1021.5
2023-02-17T20:16:36.171Z,1021.45
2023-02-17T20:20:35.947Z,1021.47
2023-02-17T20:24:35.959Z,1021.56
2023-02-17T20:28:36.416Z,1021.52
2023-02-17T20:32:36.235Z,1021.45
2023-02-17T20:36:36.081Z,1021.6
2023-02-17T20:40:35.616Z,1021.54
2023-02-17T20:44:39.287Z,1021.61
2023-02-17T20:48:35.908Z,1021.66
2023-02-17T20:52:36.010Z,1021.7
2023-02-17T20:56:35.790Z,1021.76
2023-02-17T21:00:38.675Z,1021.62
2023-02-17T21:04:35.648Z,1021.7
2023-02-17T21:08:35.644Z,1021.62
2023-02-17T21:12:35.664Z,1021.52
2023-02-17T21:16:36.156Z,1021.53
2023-02-17T21:20:35.778Z,1021.56
2023-02-17T21:24:35.633Z,1021.52
2023-02-17T21:28:37.820Z,1021.51
2023-02-17T21:32:35.881Z,1021.43
2023-02-17T21:36:35.838Z,1021.57
2023-02-17T21:40:35.824Z,1021.54
2023-02-17T21:44:35.769Z,1021.56
2023-02-17T21:48:35.972Z,1021.52
2023-02-17T21:52:35.957Z,1021.63
2023-02-17T21:56:36.080Z,1021.44
2023-02-17T22:00:38.852Z,1021.42
2023-02-17T22:04:36.180Z,1021.49
2023-02-17T22:08:35.841Z,1021.43
2023-02-17T22:12:35.846Z,1021.52
2023-02-17T22:16:36.304Z,1021.46
2023-02-17T22:20:35.184Z,1021.35
2023-02-17T22:24:35.575Z,1021.36
2023-02-17T22:28:37.118Z,1021.3
2023-02-17T22:32:36.204Z,1021.32
2023-02-17T22:36:35.947Z,1021.33
2023-02-17T22:40:35.134Z,1021.28
2023-02-17T22:44:35.344Z,1021.27
2023-02-17T22:48:35.545Z,1021.25
2023-02-17T22:52:35.716Z,1021.22
2023-02-17T22:56:35.650Z,1021.26
2023-02-17T23:00:47.967Z,1021.21
2023-02-17T23:04:36.131Z,1021.28
2023-02-17T23:08:36.075Z,1021.17
2023-02-17T23:12:37.765Z,1021.07
2023-02-17T23:16:35.532Z,1020.99
2023-02-17T23:20:35.630Z,1020.8
2023-02-17T23:24:35.938Z,1020.85
2023-02-17T23:28:35.933Z,1020.8
2023-02-17T23:32:36.148Z,1020.76
2023-02-17T23:36:35.169Z,1020.73
2023-02-17T23:40:35.355Z,1020.63
2023-02-17T23:44:35.505Z,1020.7
2023-02-17T23:48:35.590Z,1020.68
2023-02-17T23:52:35.771Z,1020.58
2023-02-17T23:56:35.841Z,1020.56
